Humidity-temperature Sensor

Selected Measurement Type: Air Temperature

 
Air Temperature [°C]     6 entries per hour
Showing data from 3/2/2022 (00:00:00 Z) to 3/1/2022 (00:01:00 Z)
Previous Next [ Day | 3-Days | 7-Days ]
First Last
Prev [ Day | 3-Days | 7-Days ] Next
First Last

Start Time:     :
End Time:     :     
Time (in GMT) :00 :50 :40 :30 :20 :10
Previous Next [ Day | 3-Days | 7-Days ]
First Last
Prev [ Day | 3-Days | 7-Days ] Next
First Last


123 => good data
MM => data is determined as missing
-- => data not received/configured
Back to Top Back to Top
3/2/2022 00:00 to 23:10 25.03 24.96 25.01 25.03 24.94 24.97
3/1/2022 23:00 to 22:10 24.92 24.87 25.03 24.91 24.78 24.75
3/1/2022 22:00 to 21:10 24.71 24.45 24.31 24.28 24.12 24.83
3/1/2022 21:00 to 20:10 24.65 24.81 24.86 24.94 24.83 24.80
3/1/2022 20:00 to 19:10 24.90 24.75 24.44 24.10 23.70 23.37
3/1/2022 19:00 to 18:10 23.45 23.53 23.80 23.81 24.72 25.08
3/1/2022 18:00 to 17:10 25.05 25.19 25.10 25.15 25.02 25.10
3/1/2022 17:00 to 16:10 25.21 25.11 25.13 25.13 24.99 25.08
3/1/2022 16:00 to 15:10 25.02 24.89 24.97 24.89 24.83 24.65
3/1/2022 15:00 to 14:10 24.62 24.58 24.53 24.45 24.23 24.27
3/1/2022 14:00 to 13:10 24.32 24.45 24.52 24.53 24.52 24.51
3/1/2022 13:00 to 12:10 24.54 24.50 24.59 24.47 24.52 24.42
3/1/2022 12:00 to 11:10 24.49 24.43 24.45 24.39 24.58 24.49
3/1/2022 11:00 to 10:10 24.52 24.60 24.63 24.62 24.74 24.59
3/1/2022 10:00 to 9:10 24.76 24.67 24.79 24.70 24.76 24.69
3/1/2022 09:00 to 8:10 24.64 24.87 24.86 24.89 24.82 24.98
3/1/2022 08:00 to 7:10 24.86 24.81 24.95 24.96 25.05 24.90
3/1/2022 07:00 to 6:10 24.91 25.03 25.01 25.03 25.04 25.08
3/1/2022 06:00 to 5:10 25.12 25.09 25.16 25.16 25.11 25.15
3/1/2022 05:00 to 4:10 25.18 25.18 25.16 25.13 25.12 25.12
3/1/2022 04:00 to 3:10 25.16 25.15 25.23 25.16 25.20 25.10
3/1/2022 03:00 to 2:10 25.29 25.17 25.13 25.20 25.28 25.27
3/1/2022 02:00 to 1:10 25.26 25.26 25.35 25.19 25.37 25.37
3/1/2022 01:00 to 0:10 25.33 25.29 25.34 25.34 25.33 25.41